Terminal Aerodrome Forecast
Issued by NWS Portland, OR

Home | Current Version | Previous Version | Text Only | Print | Product List | Glossary On
Versions: 1 2 3 4 5 6 7 8 9 10 11 12 13 14 15 16 17 18 19 20 21 22 23 24 25 26 27 28 29 30 31 32 33 34 35 36 37 38 39 40 41 42 43 44 45 46 47
000
FTUS46 KPQR 011731
TAFAST
TAF
KAST 011731Z 0118/0218 20010G20KT 4SM -SHRA BR SCT015 BKN020 OVC030
      TEMPO 0118/0120 2SM RA BR
     FM012000 22008KT 6SM -SHRA BR OVC025
     FM021200 21004KT P6SM -SHRA BKN015 OVC030=

USA.gov is the U.S. government's official web portal to all federal, state and local government web resources and services.